Isim, Russia
Current Conditions -  °F | °C
As of 7:00 AM on Thursday 23 Oct 2014 (Local Time) from UACP Reporting Station
Haze Haze  
Wind Chill: 27°   Ceiling: 900
Heat Index: 34°   Visibility: 3mi
Dew Point: 34°   Wind: 9mph
Humidity: 100%   Direction: 150°SSE
Pressure: 29.65"   Gusts: NA
Location:  56.1°N, 69.43°E
Report Text: UACP 230200Z 15004MPS 5000 BR OVC009 01/01 Q1004 NOSIGRMK QFE741/0988
Loading
Personal Weather Stations






























Interactive Weather Map
Tropical Storm Tracking
New forecast layout! Learn more

10-Day Weather Forecast

Advertisements
Track Severe Weather on mobile